createdAt,value
2022-09-27T00:00:18.326Z,97256.58
2022-09-27T00:01:40.428Z,97254.29
2022-09-27T00:02:42.155Z,97252.02
2022-09-27T00:03:44.638Z,97252.24
2022-09-27T00:04:46.318Z,97254.46
2022-09-27T00:05:47.989Z,97255.98
2022-09-27T00:06:49.745Z,97253.98
2022-09-27T00:07:51.421Z,97257.83
2022-09-27T00:08:53.342Z,97257.19
2022-09-27T00:09:55.001Z,97256.67
2022-09-27T00:11:01.332Z,97259.81
2022-09-27T00:12:03.469Z,97258.42
2022-09-27T00:13:05.186Z,97255.59
2022-09-27T00:14:08.334Z,97252.94
2022-09-27T00:15:10.417Z,97250.80
2022-09-27T00:16:12.184Z,97255.58
2022-09-27T00:17:13.892Z,97253.30
2022-09-27T00:18:16.993Z,97249.33
2022-09-27T00:19:22.843Z,97253.04
2022-09-27T00:20:24.471Z,97249.11
2022-09-27T00:21:26.408Z,97245.78
2022-09-27T00:22:29.135Z,97244.20
2022-09-27T00:23:30.786Z,97240.66
2022-09-27T00:24:32.545Z,97241.80
2022-09-27T00:25:34.297Z,97244.80
2022-09-27T00:26:35.952Z,97244.02
2022-09-27T00:27:37.608Z,97246.09
2022-09-27T00:28:39.275Z,97244.51
2022-09-27T00:29:41.028Z,97245.01
2022-09-27T00:30:42.939Z,97243.77
2022-09-27T00:31:45.908Z,97245.70
2022-09-27T00:32:47.547Z,97242.20
2022-09-27T00:33:52.242Z,97242.40
2022-09-27T00:34:53.997Z,97243.71
2022-09-27T00:35:55.718Z,97243.81
2022-09-27T00:36:57.391Z,97243.19
2022-09-27T00:37:59.008Z,97239.15
2022-09-27T00:39:01.553Z,97242.45
2022-09-27T00:40:03.479Z,97238.41
2022-09-27T00:41:05.821Z,97241.04
2022-09-27T00:42:12.324Z,97239.04
2022-09-27T00:43:23.017Z,97245.63
2022-09-27T00:44:28.519Z,97243.16
2022-09-27T00:45:30.722Z,97241.27
2022-09-27T00:46:41.310Z,97246.16
2022-09-27T00:47:48.222Z,97246.20
2022-09-27T00:49:01.498Z,97242.58
2022-09-27T00:50:30.937Z,97242.86
2022-09-27T00:51:38.260Z,97239.73
2022-09-27T00:52:55.219Z,97239.71
2022-09-27T00:53:59.312Z,97241.17
2022-09-27T00:55:15.903Z,97233.79
2022-09-27T00:56:26.205Z,97230.63
2022-09-27T00:57:28.723Z,97228.52
2022-09-27T00:58:39.986Z,97228.35
2022-09-27T00:59:48.986Z,97227.86
2022-09-27T01:00:56.421Z,97226.45
2022-09-27T01:01:58.738Z,97228.24
2022-09-27T01:03:07.441Z,97227.14
2022-09-27T01:04:13.665Z,97226.95
2022-09-27T01:05:19.308Z,97224.43
2022-09-27T01:06:22.208Z,97226.05
2022-09-27T01:07:23.997Z,97222.41
2022-09-27T01:08:25.765Z,97221.29
2022-09-27T01:09:29.115Z,97222.25
2022-09-27T01:10:40.873Z,97223.44
2022-09-27T01:11:46.085Z,97224.61
2022-09-27T01:12:57.934Z,97223.61
2022-09-27T01:14:20.835Z,97221.35
2022-09-27T01:15:37.437Z,97223.77
2022-09-27T01:17:02.328Z,97224.20
2022-09-27T01:18:28.524Z,97220.08
2022-09-27T01:20:12.416Z,97217.46
2022-09-27T01:21:29.743Z,97220.41
2022-09-27T01:22:59.466Z,97213.21
2022-09-27T01:24:23.164Z,97208.05
2022-09-27T01:26:06.145Z,97199.92
2022-09-27T01:27:33.596Z,97200.73
2022-09-27T01:28:56.219Z,97196.39
2022-09-27T01:30:16.502Z,97197.27
2022-09-27T01:31:47.403Z,97195.77
2022-09-27T01:33:17.279Z,97197.49
2022-09-27T01:34:29.487Z,97190.29
2022-09-27T01:35:52.181Z,97189.29
2022-09-27T01:37:11.936Z,97191.86
2022-09-27T01:38:42.083Z,97189.14
2022-09-27T01:40:31.018Z,97183.19
2022-09-27T01:41:48.980Z,97179.79
2022-09-27T01:43:22.431Z,97179.08
2022-09-27T01:44:45.793Z,97178.01
2022-09-27T01:46:10.857Z,97175.59
2022-09-27T01:47:59.555Z,97174.27
2022-09-27T01:49:31.524Z,97177.74
2022-09-27T01:51:07.611Z,97180.84
2022-09-27T01:52:18.254Z,97181.45
2022-09-27T01:53:29.060Z,97181.52
2022-09-27T01:54:59.062Z,97178.90
2022-09-27T01:56:56.676Z,97171.88
2022-09-27T01:58:24.360Z,97171.95
2022-09-27T01:59:34.133Z,97169.27
2022-09-27T02:00:49.645Z,97168.66
2022-09-27T02:01:59.789Z,97170.60
2022-09-27T02:03:22.855Z,97166.36
2022-09-27T02:04:48.429Z,97166.95
2022-09-27T02:06:18.494Z,97163.13
2022-09-27T02:08:00.969Z,97162.11
2022-09-27T02:09:22.412Z,97158.67
2022-09-27T02:10:40.950Z,97159.80
2022-09-27T02:11:57.210Z,97157.86
2022-09-27T02:13:10.498Z,97155.77
2022-09-27T02:14:22.088Z,97155.83
2022-09-27T02:15:39.967Z,97153.77
2022-09-27T02:17:25.287Z,97149.57
2022-09-27T02:18:38.718Z,97150.45
2022-09-27T02:19:54.883Z,97141.74
2022-09-27T02:21:07.775Z,97144.33
2022-09-27T02:22:26.918Z,97144.09
2022-09-27T02:23:44.024Z,97144.19
2022-09-27T02:25:07.911Z,97145.89
2022-09-27T02:26:18.071Z,97145.66
2022-09-27T02:27:33.602Z,97143.95
2022-09-27T02:29:05.852Z,97145.27
2022-09-27T02:30:15.782Z,97141.41
2022-09-27T02:31:20.228Z,97137.01
2022-09-27T02:32:22.396Z,97137.25
2022-09-27T02:33:31.738Z,97138.47
2022-09-27T02:34:38.127Z,97135.78
2022-09-27T02:35:39.990Z,97135.47
2022-09-27T02:36:42.275Z,97136.51
2022-09-27T02:37:44.481Z,97134.85
2022-09-27T02:38:46.449Z,97137.55
2022-09-27T02:39:49.439Z,97133.16
2022-09-27T02:40:51.214Z,97135.02
2022-09-27T02:41:53.635Z,97131.02
2022-09-27T02:42:55.927Z,97132.77
2022-09-27T02:44:03.892Z,97133.25
2022-09-27T02:45:07.348Z,97131.61
2022-09-27T02:46:24.014Z,97132.95
2022-09-27T02:47:50.860Z,97132.29
2022-09-27T02:49:20.475Z,97131.36
2022-09-27T02:51:07.163Z,97128.02
2022-09-27T02:52:39.063Z,97126.54
2022-09-27T02:54:02.147Z,97123.17
2022-09-27T02:55:37.653Z,97124.85
2022-09-27T02:57:00.033Z,97123.48
2022-09-27T02:58:49.418Z,97121.45
2022-09-27T03:00:18.168Z,97121.09
2022-09-27T03:02:13.918Z,97117.45
2022-09-27T03:04:18.410Z,97120.86
2022-09-27T03:05:28.582Z,97120.22
2022-09-27T03:06:32.944Z,97118.70
2022-09-27T03:07:38.464Z,97115.92
2022-09-27T03:08:41.191Z,97118.28
2022-09-27T03:09:51.081Z,97119.16
2022-09-27T03:10:52.931Z,97115.59
2022-09-27T03:11:55.163Z,97115.96
2022-09-27T03:12:58.755Z,97112.17
2022-09-27T03:14:09.139Z,97114.25
2022-09-27T03:15:15.244Z,97113.50
2022-09-27T03:16:34.871Z,97111.69
2022-09-27T03:17:52.369Z,97108.52
2022-09-27T03:18:53.989Z,97107.55
2022-09-27T03:20:14.105Z,97111.50
2022-09-27T03:21:24.396Z,97110.58
2022-09-27T03:22:26.537Z,97106.71
2022-09-27T03:23:29.013Z,97107.42
2022-09-27T03:24:30.897Z,97107.19
2022-09-27T03:25:32.625Z,97106.00
2022-09-27T03:26:34.406Z,97106.91
2022-09-27T03:27:36.089Z,97106.23
2022-09-27T03:28:37.840Z,97105.50
2022-09-27T03:29:39.764Z,97103.02
2022-09-27T03:30:42.840Z,97097.31
2022-09-27T03:31:47.204Z,97096.91
2022-09-27T03:33:18.511Z,97097.38
2022-09-27T03:34:31.822Z,97099.46
2022-09-27T03:35:33.465Z,97100.55
2022-09-27T03:36:35.721Z,97101.89
2022-09-27T03:37:37.956Z,97098.98
2022-09-27T03:38:39.773Z,97099.05
2022-09-27T03:39:43.707Z,97096.27
2022-09-27T03:40:45.639Z,97094.09
2022-09-27T03:41:48.226Z,97092.68
2022-09-27T03:42:51.048Z,97093.02
2022-09-27T03:43:52.748Z,97091.97
2022-09-27T03:44:54.674Z,97091.20
2022-09-27T03:45:56.416Z,97091.09
2022-09-27T03:46:58.820Z,97088.64
2022-09-27T03:48:00.890Z,97090.38
2022-09-27T03:49:02.610Z,97087.14
2022-09-27T03:50:04.631Z,97087.95
2022-09-27T03:51:06.580Z,97084.13
2022-09-27T03:52:08.677Z,97081.04
2022-09-27T03:53:10.359Z,97085.30
2022-09-27T03:54:12.065Z,97080.46
2022-09-27T03:55:14.361Z,97080.65
2022-09-27T03:56:16.125Z,97080.20
2022-09-27T03:57:17.951Z,97079.64
2022-09-27T03:58:19.954Z,97081.32
2022-09-27T03:59:22.075Z,97082.53
2022-09-27T04:00:44.033Z,97075.92
2022-09-27T04:01:46.105Z,97076.40
2022-09-27T04:02:56.503Z,97074.17
2022-09-27T04:03:58.260Z,97071.98
2022-09-27T04:05:05.367Z,97072.63
2022-09-27T04:06:07.799Z,97070.45
2022-09-27T04:07:12.931Z,97068.86
2022-09-27T04:08:14.782Z,97066.77
2022-09-27T04:09:16.930Z,97067.73
2022-09-27T04:10:29.649Z,97066.09
2022-09-27T04:11:31.389Z,97062.87
2022-09-27T04:12:33.514Z,97063.20
2022-09-27T04:13:35.287Z,97062.95
2022-09-27T04:14:36.951Z,97062.29
2022-09-27T04:16:22.910Z,97058.55
2022-09-27T04:17:57.766Z,97051.24
2022-09-27T04:19:08.901Z,97046.41
2022-09-27T04:20:13.430Z,97043.51
2022-09-27T04:21:16.679Z,97039.24
2022-09-27T04:22:23.761Z,97036.69
2022-09-27T04:23:29.783Z,97035.06
2022-09-27T04:24:33.007Z,97031.36
2022-09-27T04:25:50.360Z,97034.64
2022-09-27T04:27:04.996Z,97038.96
2022-09-27T04:28:06.884Z,97038.12
2022-09-27T04:29:09.773Z,97040.71
2022-09-27T04:30:14.756Z,97034.94
2022-09-27T04:32:00.240Z,97040.25
2022-09-27T04:33:59.009Z,97040.89
2022-09-27T04:35:27.837Z,97040.42
2022-09-27T04:36:29.595Z,97038.36
2022-09-27T04:37:49.603Z,97045.36
2022-09-27T04:38:51.898Z,97043.27
2022-09-27T04:39:54.776Z,97046.39
2022-09-27T04:40:56.864Z,97041.55
2022-09-27T04:41:59.102Z,97042.10
2022-09-27T04:43:01.251Z,97043.90
2022-09-27T04:44:03.379Z,97048.94
2022-09-27T04:45:06.226Z,97042.91
2022-09-27T04:46:08.649Z,97043.24
2022-09-27T04:47:10.512Z,97046.35
2022-09-27T04:48:12.534Z,97047.29
2022-09-27T04:49:15.953Z,97049.66
2022-09-27T04:50:20.184Z,97047.16
2022-09-27T04:51:36.667Z,97046.70
2022-09-27T04:52:40.309Z,97047.27
2022-09-27T04:53:42.265Z,97048.09
2022-09-27T04:54:44.512Z,97047.27
2022-09-27T04:55:47.377Z,97048.15
2022-09-27T04:56:49.258Z,97047.19
2022-09-27T04:57:50.964Z,97046.68
2022-09-27T04:58:53.922Z,97046.41
2022-09-27T04:59:55.719Z,97048.15
2022-09-27T05:00:57.537Z,97042.83
2022-09-27T05:02:21.034Z,97042.89
2022-09-27T05:04:00.382Z,97042.30
2022-09-27T05:05:03.698Z,97040.63
2022-09-27T05:06:09.922Z,97038.20
2022-09-27T05:07:11.778Z,97041.60
2022-09-27T05:08:18.005Z,97039.17
2022-09-27T05:09:38.215Z,97037.45
2022-09-27T05:10:40.325Z,97036.71
2022-09-27T05:11:42.261Z,97034.84
2022-09-27T05:13:10.938Z,97034.67
2022-09-27T05:14:14.172Z,97030.89
2022-09-27T05:15:24.199Z,97029.98
2022-09-27T05:16:44.756Z,97032.94
2022-09-27T05:18:05.529Z,97033.98
2022-09-27T05:19:25.757Z,97033.34
2022-09-27T05:20:48.942Z,97038.23
2022-09-27T05:21:59.293Z,97036.01
2022-09-27T05:23:02.901Z,97037.79
2022-09-27T05:24:05.807Z,97034.45
2022-09-27T05:25:08.106Z,97039.11
2022-09-27T05:26:09.809Z,97037.63
2022-09-27T05:27:16.857Z,97037.91
2022-09-27T05:28:18.463Z,97041.63
2022-09-27T05:29:20.214Z,97041.90
2022-09-27T05:30:33.670Z,97041.91
2022-09-27T05:31:52.322Z,97042.68
2022-09-27T05:32:54.813Z,97045.08
2022-09-27T05:34:20.912Z,97042.98
2022-09-27T05:35:33.937Z,97039.67
2022-09-27T05:36:35.854Z,97042.66
2022-09-27T05:37:38.564Z,97042.59
2022-09-27T05:38:41.885Z,97042.95
2022-09-27T05:39:43.795Z,97044.73
2022-09-27T05:40:47.819Z,97047.33
2022-09-27T05:42:53.346Z,97049.70
2022-09-27T05:43:55.688Z,97048.11
2022-09-27T05:44:57.381Z,97052.38
2022-09-27T05:45:59.136Z,97048.84
2022-09-27T05:47:04.287Z,97051.20
2022-09-27T05:48:06.586Z,97049.05
2022-09-27T05:49:12.312Z,97045.95
2022-09-27T05:50:14.645Z,97053.85
2022-09-27T05:51:16.551Z,97052.63
2022-09-27T05:52:20.226Z,97047.88
2022-09-27T05:53:25.457Z,97046.63
2022-09-27T05:54:29.588Z,97048.32
2022-09-27T05:55:32.833Z,97049.67
2022-09-27T05:56:34.838Z,97047.59
2022-09-27T05:58:06.062Z,97046.52
2022-09-27T05:59:14.381Z,97046.92
2022-09-27T06:00:54.035Z,97049.63
2022-09-27T06:02:19.134Z,97046.36
2022-09-27T06:03:41.218Z,97046.70
2022-09-27T06:05:21.172Z,97051.79
2022-09-27T06:07:03.953Z,97044.40
2022-09-27T06:08:09.008Z,97044.75
2022-09-27T06:09:17.214Z,97044.59
2022-09-27T06:10:20.920Z,97043.77
2022-09-27T06:11:22.584Z,97045.77
2022-09-27T06:12:25.112Z,97041.64
2022-09-27T06:13:27.236Z,97040.62
2022-09-27T06:14:29.164Z,97040.44
2022-09-27T06:15:43.559Z,97040.48
2022-09-27T06:16:45.833Z,97039.86
2022-09-27T06:17:47.708Z,97041.63
2022-09-27T06:18:53.878Z,97039.20
2022-09-27T06:19:56.234Z,97039.42
2022-09-27T06:21:01.593Z,97034.90
2022-09-27T06:22:03.727Z,97033.23
2022-09-27T06:23:21.246Z,97035.30
2022-09-27T06:24:23.886Z,97032.75
2022-09-27T06:25:26.916Z,97031.98
2022-09-27T06:27:19.047Z,97026.00
2022-09-27T06:28:41.960Z,97023.41
2022-09-27T06:29:43.625Z,97022.13
2022-09-27T06:30:54.364Z,97022.75
2022-09-27T06:32:36.801Z,97026.52
2022-09-27T06:34:03.599Z,97022.36
2022-09-27T06:35:06.334Z,97025.86
2022-09-27T06:36:08.972Z,97026.23
2022-09-27T06:37:12.978Z,97022.17
2022-09-27T06:38:17.646Z,97023.21
2022-09-27T06:39:35.492Z,97027.18
2022-09-27T06:40:51.971Z,97025.39
2022-09-27T06:42:01.867Z,97024.02
2022-09-27T06:43:22.253Z,97019.81
2022-09-27T06:44:40.734Z,97021.14
2022-09-27T06:46:04.798Z,97013.70
2022-09-27T06:47:25.372Z,97016.23
2022-09-27T06:49:25.868Z,97021.00
2022-09-27T06:50:39.728Z,97025.92
2022-09-27T06:51:42.279Z,97026.16
2022-09-27T06:52:48.837Z,97029.36
2022-09-27T06:53:50.698Z,97034.53
2022-09-27T06:54:52.431Z,97033.42
2022-09-27T06:56:00.171Z,97034.15
2022-09-27T06:57:04.301Z,97034.08
2022-09-27T06:58:25.825Z,97036.38
2022-09-27T07:00:04.565Z,97039.27
2022-09-27T07:01:29.708Z,97040.31
2022-09-27T07:03:11.511Z,97038.41
2022-09-27T07:04:35.038Z,97035.44
2022-09-27T07:05:59.110Z,97033.23
2022-09-27T07:07:13.897Z,97031.41
2022-09-27T07:08:20.747Z,97030.71
2022-09-27T07:09:22.557Z,97030.17
2022-09-27T07:10:30.090Z,97028.50
2022-09-27T07:11:33.117Z,97030.55
2022-09-27T07:12:37.137Z,97027.00
2022-09-27T07:13:42.869Z,97025.65
2022-09-27T07:14:44.572Z,97026.17
2022-09-27T07:15:49.643Z,97027.00
2022-09-27T07:16:51.672Z,97027.84
2022-09-27T07:17:58.704Z,97028.04
2022-09-27T07:19:02.644Z,97027.40
2022-09-27T07:20:05.555Z,97027.19
2022-09-27T07:21:08.736Z,97031.06
2022-09-27T07:22:10.512Z,97035.42
2022-09-27T07:23:14.442Z,97028.73
2022-09-27T07:24:16.199Z,97033.33
2022-09-27T07:25:18.574Z,97036.29
2022-09-27T07:26:20.330Z,97032.77
2022-09-27T07:27:22.762Z,97034.81
2022-09-27T07:28:24.433Z,97036.23
2022-09-27T07:29:26.139Z,97032.42
2022-09-27T07:30:29.546Z,97035.73
2022-09-27T07:31:31.401Z,97037.98
2022-09-27T07:32:35.636Z,97040.72
2022-09-27T07:33:43.217Z,97040.09
2022-09-27T07:34:45.636Z,97038.94
2022-09-27T07:35:48.170Z,97037.64
2022-09-27T07:36:50.531Z,97039.73
2022-09-27T07:37:52.495Z,97038.50
2022-09-27T07:38:54.288Z,97041.23
2022-09-27T07:39:56.386Z,97044.19
2022-09-27T07:40:59.213Z,97040.63
2022-09-27T07:42:02.322Z,97042.82
2022-09-27T07:43:04.864Z,97039.38
2022-09-27T07:44:08.091Z,97038.55
2022-09-27T07:45:16.020Z,97038.14
2022-09-27T07:47:08.152Z,97034.77
2022-09-27T07:49:02.684Z,97029.20
2022-09-27T07:50:22.693Z,97032.00
2022-09-27T07:51:56.359Z,97030.52
2022-09-27T07:53:14.462Z,97032.58
2022-09-27T07:54:31.589Z,97033.88
2022-09-27T07:56:23.166Z,97034.89
2022-09-27T07:57:24.912Z,97035.33
2022-09-27T07:58:29.612Z,97038.35
2022-09-27T07:59:34.956Z,97036.50
2022-09-27T08:00:39.717Z,97043.33
2022-09-27T08:01:42.000Z,97038.55
2022-09-27T08:02:44.975Z,97038.04
2022-09-27T08:03:46.829Z,97034.33
2022-09-27T08:04:49.544Z,97034.38
2022-09-27T08:05:52.040Z,97038.62
2022-09-27T08:06:54.731Z,97038.27
2022-09-27T08:07:57.500Z,97036.88
2022-09-27T08:09:00.351Z,97037.98
2022-09-27T08:10:03.650Z,97039.02
2022-09-27T08:11:15.185Z,97035.71
2022-09-27T08:12:21.496Z,97035.45
2022-09-27T08:13:23.884Z,97032.91
2022-09-27T08:14:27.140Z,97034.48
2022-09-27T08:15:31.881Z,97034.66
2022-09-27T08:16:34.547Z,97035.02
2022-09-27T08:18:32.599Z,97032.27
2022-09-27T08:19:48.280Z,97033.61
2022-09-27T08:21:33.811Z,97030.19
2022-09-27T08:22:57.673Z,97035.29
2022-09-27T08:24:08.624Z,97032.34
2022-09-27T08:25:30.735Z,97037.30
2022-09-27T08:27:19.202Z,97035.20
2022-09-27T08:28:28.282Z,97040.71
2022-09-27T08:29:35.809Z,97041.08
2022-09-27T08:30:38.465Z,97042.73
2022-09-27T08:31:42.149Z,97043.94
2022-09-27T08:32:43.835Z,97044.69
2022-09-27T08:33:50.934Z,97047.81
2022-09-27T08:34:52.584Z,97049.63
2022-09-27T08:35:56.189Z,97044.20
2022-09-27T08:36:59.388Z,97044.17
2022-09-27T08:38:02.825Z,97043.67
2022-09-27T08:39:05.412Z,97044.86
2022-09-27T08:40:17.764Z,97040.33
2022-09-27T08:41:34.881Z,97038.98
2022-09-27T08:42:50.183Z,97038.87
2022-09-27T08:44:13.617Z,97038.27
2022-09-27T08:45:32.746Z,97038.34
2022-09-27T08:46:43.784Z,97037.58
2022-09-27T08:48:06.660Z,97039.42
2022-09-27T08:49:37.997Z,97040.32
2022-09-27T08:50:46.800Z,97033.83
2022-09-27T08:51:53.939Z,97036.89
2022-09-27T08:53:05.304Z,97030.92
2022-09-27T08:54:13.444Z,97033.30
2022-09-27T08:55:32.226Z,97031.66
2022-09-27T08:56:35.414Z,97028.97
2022-09-27T08:57:38.029Z,97024.66
2022-09-27T08:59:03.886Z,97028.27
2022-09-27T09:00:12.276Z,97026.18
2022-09-27T09:01:19.149Z,97026.59
2022-09-27T09:02:38.152Z,97026.73
2022-09-27T09:03:55.348Z,97027.54
2022-09-27T09:05:13.301Z,97025.23
2022-09-27T09:06:25.945Z,97024.11
2022-09-27T09:07:42.816Z,97023.90
2022-09-27T09:09:02.715Z,97024.88
2022-09-27T09:10:50.506Z,97024.10
2022-09-27T09:12:46.585Z,97025.02
2022-09-27T09:14:29.140Z,97022.66
2022-09-27T09:15:54.920Z,97016.55
2022-09-27T09:17:53.301Z,97013.24
2022-09-27T09:19:41.327Z,97014.15
2022-09-27T09:21:14.637Z,97012.64
2022-09-27T09:22:57.289Z,97009.60
2022-09-27T09:24:11.455Z,97011.95
2022-09-27T09:25:32.718Z,97011.31
2022-09-27T09:26:52.936Z,97008.46
2022-09-27T09:28:28.477Z,97005.29
2022-09-27T09:30:26.056Z,97002.88
2022-09-27T09:31:56.197Z,97001.86
2022-09-27T09:33:30.665Z,97000.45
2022-09-27T09:34:43.272Z,97000.02
2022-09-27T09:36:01.778Z,96996.91
2022-09-27T09:37:29.740Z,96997.04
2022-09-27T09:38:41.899Z,97000.68
2022-09-27T09:40:08.108Z,96999.11
2022-09-27T09:41:31.705Z,97001.02
2022-09-27T09:42:40.691Z,96998.77
2022-09-27T09:43:48.279Z,96999.72
2022-09-27T09:45:07.338Z,96999.34
2022-09-27T09:46:14.398Z,96993.96
2022-09-27T09:47:44.629Z,96992.65
2022-09-27T09:49:07.445Z,96995.35
2022-09-27T09:50:29.421Z,96992.20
2022-09-27T09:51:39.893Z,96994.48
2022-09-27T09:52:59.541Z,96989.94
2022-09-27T09:54:15.874Z,96988.35
2022-09-27T09:55:28.943Z,96988.56
2022-09-27T09:56:35.719Z,96984.25
2022-09-27T09:57:44.091Z,96981.24
2022-09-27T09:58:59.559Z,96982.32
2022-09-27T10:00:18.103Z,96978.04
2022-09-27T10:01:29.583Z,96981.18
2022-09-27T10:02:43.905Z,96977.69
2022-09-27T10:03:49.119Z,96976.63
2022-09-27T10:04:51.104Z,96979.08
2022-09-27T10:05:52.855Z,96978.45
2022-09-27T10:06:59.805Z,96977.78
2022-09-27T10:08:12.818Z,96974.52
2022-09-27T10:09:18.050Z,96974.81
2022-09-27T10:10:42.506Z,96973.15
2022-09-27T10:11:48.164Z,96974.37
2022-09-27T10:13:04.624Z,96972.77
2022-09-27T10:14:13.422Z,96971.05
2022-09-27T10:15:25.909Z,96971.48
2022-09-27T10:16:29.209Z,96972.70
2022-09-27T10:17:38.888Z,96972.48
2022-09-27T10:18:47.642Z,96969.07
2022-09-27T10:19:54.637Z,96972.84
2022-09-27T10:21:01.965Z,96969.54
2022-09-27T10:22:19.141Z,96969.26
2022-09-27T10:23:25.130Z,96967.56
2022-09-27T10:25:16.428Z,96966.89
2022-09-27T10:26:28.346Z,96968.61
2022-09-27T10:27:47.112Z,96963.39
2022-09-27T10:28:52.218Z,96962.10
2022-09-27T10:30:02.546Z,96959.79
2022-09-27T10:31:12.415Z,96957.14
2022-09-27T10:32:31.410Z,96955.98
2022-09-27T10:34:07.064Z,96956.61
2022-09-27T10:35:45.211Z,96949.08
2022-09-27T10:37:11.926Z,96948.34
2022-09-27T10:38:20.676Z,96945.30
2022-09-27T10:39:23.816Z,96945.38
2022-09-27T10:40:33.756Z,96944.14
2022-09-27T10:41:41.683Z,96941.77
2022-09-27T10:42:46.221Z,96940.98
2022-09-27T10:43:48.203Z,96941.70
2022-09-27T10:45:33.393Z,96935.84
2022-09-27T10:46:49.177Z,96936.07
2022-09-27T10:47:58.912Z,96932.02
2022-09-27T10:49:32.760Z,96932.61
2022-09-27T10:50:50.231Z,96931.18
2022-09-27T10:52:03.927Z,96930.05
2022-09-27T10:53:14.590Z,96928.03
2022-09-27T10:54:35.812Z,96929.89
2022-09-27T10:55:39.861Z,96931.98
2022-09-27T10:56:43.937Z,96929.59
2022-09-27T10:57:52.941Z,96929.46
2022-09-27T10:58:56.507Z,96927.18
2022-09-27T11:00:25.848Z,96929.13
2022-09-27T11:01:41.125Z,96924.34
2022-09-27T11:03:00.004Z,96924.27
2022-09-27T11:04:04.927Z,96919.36
2022-09-27T11:05:23.658Z,96923.40
2022-09-27T11:06:25.268Z,96919.85
2022-09-27T11:07:28.159Z,96919.23
2022-09-27T11:08:38.363Z,96915.09
2022-09-27T11:09:54.651Z,96915.60
2022-09-27T11:11:06.542Z,96915.77
2022-09-27T11:12:10.900Z,96910.76
2022-09-27T11:13:20.354Z,96909.70
2022-09-27T11:14:25.651Z,96911.84
2022-09-27T11:15:31.224Z,96910.89
2022-09-27T11:17:04.770Z,96907.83
2022-09-27T11:18:26.374Z,96900.80
2022-09-27T11:19:52.581Z,96902.33
2022-09-27T11:21:09.260Z,96896.52
2022-09-27T11:22:35.791Z,96895.51
2022-09-27T11:23:48.859Z,96895.22
2022-09-27T11:25:32.113Z,96892.10
2022-09-27T11:26:37.032Z,96888.69
2022-09-27T11:27:50.694Z,96890.21
2022-09-27T11:29:07.858Z,96888.14
2022-09-27T11:31:04.170Z,96886.44
2022-09-27T11:32:30.908Z,96881.42
2022-09-27T11:33:48.022Z,96881.59
2022-09-27T11:35:06.455Z,96879.45
2022-09-27T11:36:15.155Z,96880.97
2022-09-27T11:37:50.299Z,96876.16
2022-09-27T11:39:02.959Z,96871.92
2022-09-27T11:40:29.125Z,96869.71
2022-09-27T11:42:08.593Z,96866.85
2022-09-27T11:43:34.807Z,96868.48
2022-09-27T11:45:13.293Z,96863.33
2022-09-27T11:46:40.287Z,96864.19
2022-09-27T11:48:01.475Z,96868.14
2022-09-27T11:49:29.914Z,96867.16
2022-09-27T11:50:53.729Z,96866.81
2022-09-27T11:52:21.488Z,96865.57
2022-09-27T11:53:51.509Z,96866.04
2022-09-27T11:55:04.370Z,96865.49
2022-09-27T11:56:28.049Z,96861.34
2022-09-27T11:57:47.601Z,96860.05
2022-09-27T11:59:25.586Z,96859.40
2022-09-27T12:00:55.231Z,96858.26
2022-09-27T12:02:56.409Z,96857.91
2022-09-27T12:04:08.074Z,96859.44
2022-09-27T12:05:36.925Z,96855.23
2022-09-27T12:06:55.235Z,96854.33
2022-09-27T12:08:33.050Z,96853.96
2022-09-27T12:09:41.273Z,96855.61
2022-09-27T12:10:51.170Z,96851.86
2022-09-27T12:12:20.765Z,96853.83
2022-09-27T12:13:49.310Z,96849.11
2022-09-27T12:15:07.445Z,96849.19
2022-09-27T12:16:15.187Z,96846.05
2022-09-27T12:17:40.009Z,96845.65
2022-09-27T12:18:49.261Z,96846.08
2022-09-27T12:20:24.415Z,96842.15
2022-09-27T12:21:30.334Z,96840.10
2022-09-27T12:23:00.239Z,96837.89
2022-09-27T12:24:46.233Z,96829.58
2022-09-27T12:26:15.677Z,96829.84
2022-09-27T12:27:34.439Z,96827.75
2022-09-27T12:28:40.854Z,96829.64
2022-09-27T12:29:48.705Z,96826.16
2022-09-27T12:31:27.408Z,96831.23
2022-09-27T12:32:42.015Z,96827.45
2022-09-27T12:34:00.224Z,96826.17
2022-09-27T12:35:25.642Z,96821.96
2022-09-27T12:38:06.086Z,96819.20
2022-09-27T12:39:30.527Z,96820.14
2022-09-27T12:40:48.827Z,96815.98
2022-09-27T12:42:06.130Z,96819.53
2022-09-27T12:43:20.965Z,96818.13
2022-09-27T12:44:40.101Z,96814.50
2022-09-27T12:46:23.127Z,96822.20
2022-09-27T12:47:50.270Z,96816.30
2022-09-27T12:49:04.950Z,96817.25
2022-09-27T12:50:41.978Z,96816.85
2022-09-27T12:51:53.633Z,96814.77
2022-09-27T12:53:04.498Z,96816.27
2022-09-27T12:54:09.143Z,96818.61
2022-09-27T12:55:24.670Z,96818.10
2022-09-27T12:56:45.159Z,96817.15
2022-09-27T12:58:19.647Z,96815.43
2022-09-27T12:59:49.122Z,96814.41
2022-09-27T13:01:07.363Z,96808.31
2022-09-27T13:02:33.750Z,96804.94
2022-09-27T13:03:47.399Z,96800.80
2022-09-27T13:04:59.453Z,96798.02
2022-09-27T13:06:24.209Z,96800.67
2022-09-27T13:07:36.718Z,96797.05
2022-09-27T13:09:01.934Z,96799.73
2022-09-27T13:10:35.413Z,96797.77
2022-09-27T13:11:49.571Z,96799.59
2022-09-27T13:12:55.063Z,96798.67
2022-09-27T13:14:00.701Z,96798.34
2022-09-27T13:15:13.862Z,96796.44
2022-09-27T13:16:16.057Z,96791.17
2022-09-27T13:17:43.462Z,96787.01
2022-09-27T13:19:01.642Z,96779.90
2022-09-27T13:20:35.453Z,96778.09
2022-09-27T13:21:49.275Z,96777.96
2022-09-27T13:23:31.798Z,96772.55
2022-09-27T13:24:38.791Z,96772.33
2022-09-27T13:26:03.706Z,96774.95
2022-09-27T13:27:25.811Z,96771.92
2022-09-27T13:28:33.796Z,96767.89
2022-09-27T13:29:35.772Z,96766.84
2022-09-27T13:30:41.645Z,96763.59
2022-09-27T13:31:55.098Z,96764.30
2022-09-27T13:33:56.490Z,96759.84
2022-09-27T13:35:19.651Z,96756.67
2022-09-27T13:36:28.174Z,96755.84
2022-09-27T13:37:52.046Z,96756.14
2022-09-27T13:39:06.187Z,96754.65
2022-09-27T13:40:30.831Z,96758.51
2022-09-27T13:42:35.715Z,96749.13
2022-09-27T13:44:05.698Z,96751.45
2022-09-27T13:45:31.377Z,96751.73
2022-09-27T13:46:36.256Z,96751.17
2022-09-27T13:47:47.030Z,96752.39
2022-09-27T13:49:00.949Z,96748.77
2022-09-27T13:50:37.760Z,96749.54
2022-09-27T13:51:51.557Z,96751.66
2022-09-27T13:53:00.630Z,96752.52
2022-09-27T13:54:10.352Z,96749.63
2022-09-27T13:55:42.105Z,96752.56
2022-09-27T13:56:51.714Z,96747.95
2022-09-27T13:58:03.882Z,96743.60
2022-09-27T13:59:12.604Z,96744.33
2022-09-27T14:00:25.782Z,96748.45
2022-09-27T14:01:40.247Z,96745.98
2022-09-27T14:03:06.580Z,96748.34
2022-09-27T14:04:18.411Z,96751.42
2022-09-27T14:05:31.771Z,96754.48
2022-09-27T14:06:42.341Z,96751.59
2022-09-27T14:07:49.714Z,96755.76
2022-09-27T14:09:01.356Z,96754.38
2022-09-27T14:10:05.504Z,96754.77
2022-09-27T14:11:15.468Z,96758.58
2022-09-27T14:12:40.713Z,96761.41
2022-09-27T14:13:47.117Z,96764.77
2022-09-27T14:14:51.990Z,96762.58
2022-09-27T14:15:58.017Z,96760.70
2022-09-27T14:17:02.458Z,96764.84
2022-09-27T14:18:14.807Z,96766.33
2022-09-27T14:19:21.525Z,96767.45
2022-09-27T14:20:47.111Z,96769.06
2022-09-27T14:22:23.455Z,96769.72
2022-09-27T14:23:37.058Z,96772.98
2022-09-27T14:24:39.731Z,96771.77
2022-09-27T14:25:52.119Z,96771.96
2022-09-27T14:27:11.273Z,96775.85
2022-09-27T14:28:29.044Z,96774.26
2022-09-27T14:29:53.560Z,96775.19
2022-09-27T14:31:19.493Z,96773.20